Time;durP1;ratioP1;P1;durP2;ratioP2;P2;SDS_P1;SDS_P2;PMS_P1;PMS_P2;Temp;Humidity;BMP_temperature;BMP_pressure;BME280_temperature;BME280_humidity;BME280_pressure;Samples;Min_cycle;Max_cycle;Signal;HPM_P1;HPM_P2
2023/01/29 00:00:01;;;;;;;0.10;0.10;;;-1.40;99.90;12.80;163505.00;;;;5010801;28;20200;-76
2023/01/29 00:02:40;;;;;;;0.15;0.15;;;-1.30;99.90;12.80;163505.00;;;;5009341;28;20258;-75
2023/01/29 00:05:09;;;;;;;0.20;0.20;;;-1.40;99.90;12.80;163505.00;;;;5013129;28;20188;-75
2023/01/29 00:07:54;;;;;;;0.10;0.10;;;-1.30;99.90;12.80;163505.00;;;;5009918;28;20222;-74
2023/01/29 00:10:23;;;;;;;0.10;0.10;;;-1.20;99.90;12.80;163505.00;;;;5012405;28;20672;-75
2023/01/29 00:12:51;;;;;;;0.20;0.20;;;-1.30;99.90;12.80;163505.00;;;;5011503;28;20224;-75
2023/01/29 00:15:19;;;;;;;0.20;0.20;;;-1.30;99.90;12.80;163505.00;;;;5014221;28;20199;-74
2023/01/29 00:17:49;;;;;;;0.20;0.20;;;-1.30;99.90;12.80;163505.00;;;;5009361;28;20226;-74
2023/01/29 00:20:17;;;;;;;0.20;0.20;;;-1.40;99.90;12.80;163505.00;;;;5011272;28;20703;-74
2023/01/29 00:22:46;;;;;;;0.20;0.20;;;-1.30;99.90;12.80;163505.00;;;;5014615;28;20219;-75
2023/01/29 00:25:14;;;;;;;0.10;0.10;;;-1.40;99.90;12.80;163505.00;;;;4994457;28;20196;-75
2023/01/29 00:27:42;;;;;;;0.10;0.10;;;-1.40;99.90;12.80;163505.00;;;;5008562;28;20197;-78
2023/01/29 00:30:12;;;;;;;0.10;0.10;;;-1.50;99.90;12.80;163505.00;;;;5004504;28;20195;-74
2023/01/29 00:32:40;;;;;;;0.10;0.10;;;-1.60;99.90;12.80;163505.00;;;;4986222;28;20755;-77
2023/01/29 00:35:11;;;;;;;0.20;0.20;;;-1.60;99.90;12.80;163505.00;;;;5011910;28;20199;-74
2023/01/29 00:37:39;;;;;;;0.20;0.20;;;-1.60;99.90;12.80;163505.00;;;;4991598;28;20208;-74
2023/01/29 00:40:09;;;;;;;0.10;0.10;;;-1.60;99.90;12.80;163505.00;;;;5009496;28;20199;-74
2023/01/29 00:45:23;;;;;;;0.20;0.20;;;-1.50;99.90;12.80;163505.00;;;;4993226;28;20200;-77
2023/01/29 00:47:51;;;;;;;0.20;0.20;;;-1.60;99.90;12.80;163505.00;;;;4992266;28;20203;-77
2023/01/29 00:50:20;;;;;;;0.20;0.20;;;-1.50;99.90;12.80;163505.00;;;;5008122;28;20203;-77
2023/01/29 00:52:50;;;;;;;0.20;0.20;;;-1.60;99.90;12.80;163505.00;;;;5004111;28;20290;-76
2023/01/29 00:55:19;;;;;;;0.20;0.20;;;-1.60;99.90;12.80;163505.00;;;;5009722;28;20269;-76
2023/01/29 00:57:47;;;;;;;0.17;0.17;;;-1.60;99.90;12.80;163505.00;;;;5005965;28;20200;-77
2023/01/29 01:00:18;;;;;;;0.10;0.10;;;-1.60;99.90;12.80;163505.00;;;;5010597;28;20687;-77
2023/01/29 01:05:33;;;;;;;0.10;0.10;;;-1.50;99.90;12.80;163505.00;;;;5009658;28;20199;-74
2023/01/29 01:08:01;;;;;;;0.20;0.20;;;-1.40;99.90;12.80;163505.00;;;;4983182;28;20204;-74
2023/01/29 01:10:32;;;;;;;0.10;0.10;;;-1.30;99.90;12.80;163505.00;;;;5009345;28;20219;-74
2023/01/29 01:13:02;;;;;;;0.20;0.20;;;-1.40;99.90;12.80;163505.00;;;;4983828;28;20221;-74
2023/01/29 01:15:34;;;;;;;0.10;0.10;;;-1.40;99.90;12.80;163505.00;;;;5006028;28;20214;-74
2023/01/29 01:18:04;;;;;;;0.10;0.10;;;-1.40;99.90;12.80;163505.00;;;;4984910;28;20577;-77
2023/01/29 01:20:36;;;;;;;0.20;0.20;;;-1.40;99.90;12.80;163505.00;;;;4991527;28;20196;-76
2023/01/29 01:23:04;;;;;;;0.10;0.10;;;-1.40;99.90;12.80;163505.00;;;;4991594;28;20897;-76
2023/01/29 01:25:33;;;;;;;0.10;0.10;;;-1.50;99.90;12.80;163505.00;;;;5002599;28;20679;-76
2023/01/29 01:28:01;;;;;;;0.10;0.10;;;-1.40;99.90;12.80;163505.00;;;;5008507;28;20243;-79
2023/01/29 01:30:29;;;;;;;0.10;0.10;;;-1.40;99.90;12.80;163505.00;;;;5010062;28;20579;-76
2023/01/29 01:32:58;;;;;;;0.10;0.10;;;-1.40;99.90;12.80;163505.00;;;;5000730;28;20207;-76
2023/01/29 01:35:27;;;;;;;0.20;0.20;;;-1.40;99.90;12.80;163505.00;;;;4991258;28;20215;-76
2023/01/29 01:37:56;;;;;;;0.20;0.20;;;-1.30;99.90;12.80;163505.00;;;;4991926;28;20196;-76
2023/01/29 01:40:25;;;;;;;0.20;0.20;;;-1.40;99.90;12.80;163505.00;;;;4998086;28;20201;-77
2023/01/29 01:42:57;;;;;;;0.20;0.20;;;-1.40;99.90;12.80;163505.00;;;;4986648;28;20220;-76
2023/01/29 01:45:28;;;;;;;0.15;0.15;;;-1.50;99.90;12.80;163505.00;;;;5010215;28;20214;-77
2023/01/29 01:48:03;;;;;;;0.20;0.20;;;-1.60;99.90;12.80;163505.00;;;;4989563;28;20235;-74
2023/01/29 01:50:38;;;;;;;0.20;0.20;;;-1.60;99.90;12.80;163505.00;;;;5009858;28;20222;-74
2023/01/29 01:53:13;;;;;;;0.20;0.20;;;-1.70;99.90;12.80;163505.00;;;;5007859;28;20253;-74
2023/01/29 01:55:50;;;;;;;0.10;0.10;;;-1.70;99.90;12.80;163505.00;;;;5005120;28;20291;-74
2023/01/29 01:58:25;;;;;;;0.20;0.20;;;-1.70;99.90;12.80;163505.00;;;;4989065;28;20204;-75
2023/01/29 02:00:54;;;;;;;0.20;0.20;;;-1.70;99.90;12.80;163505.00;;;;5013260;28;20250;-76
2023/01/29 02:11:51;;;;;;;0.20;0.20;;;-1.60;99.90;12.80;163505.00;;;;5002207;28;20204;-76
2023/01/29 02:14:19;;;;;;;0.20;0.20;;;-1.60;99.90;12.80;163505.00;;;;4991129;28;20609;-76
2023/01/29 02:16:47;;;;;;;0.20;0.20;;;-1.50;99.90;12.80;163505.00;;;;4986060;28;20201;-75
2023/01/29 02:19:28;;;;;;;0.10;0.10;;;-1.60;99.90;12.80;163505.00;;;;4984300;28;20201;-75
2023/01/29 02:22:45;;;;;;;0.20;0.20;;;-1.70;99.90;12.80;163505.00;;;;4982569;28;20215;-75
2023/01/29 02:25:50;;;;;;;0.10;0.10;;;-1.70;99.90;12.80;163505.00;;;;4991828;28;20295;-77
2023/01/29 02:28:39;;;;;;;0.20;0.20;;;-1.70;99.90;12.80;163505.00;;;;5008978;28;20214;-76
2023/01/29 02:31:21;;;;;;;0.20;0.20;;;-1.70;99.90;12.80;163505.00;;;;5010232;28;20739;-76
2023/01/29 02:34:04;;;;;;;0.10;0.10;;;-1.70;99.90;12.80;163505.00;;;;4985629;28;20262;-76
2023/01/29 02:36:43;;;;;;;0.20;0.20;;;-1.70;99.90;12.80;163505.00;;;;4999199;28;20200;-77
2023/01/29 02:39:21;;;;;;;0.10;0.10;;;-1.70;99.90;12.80;163505.00;;;;4985332;28;20661;-77
2023/01/29 02:42:00;;;;;;;0.10;0.10;;;-1.80;99.90;12.80;163505.00;;;;5012714;28;20641;-76
2023/01/29 02:44:40;;;;;;;0.20;0.20;;;-1.80;99.90;12.80;163505.00;;;;4992584;28;20207;-76
2023/01/29 02:47:19;;;;;;;0.10;0.10;;;-1.90;99.90;12.80;163505.00;;;;5012729;28;20660;-76
2023/01/29 02:49:56;;;;;;;0.10;0.10;;;-1.90;99.90;12.80;163505.00;;;;5006740;28;20199;-76
2023/01/29 02:52:33;;;;;;;0.20;0.20;;;-2.00;99.90;12.80;163505.00;;;;5010970;28;20285;-76
2023/01/29 02:55:12;;;;;;;0.10;0.10;;;-1.90;99.90;12.80;163505.00;;;;5009001;28;20192;-76
2023/01/29 02:57:46;;;;;;;0.10;0.10;;;-2.00;99.90;12.80;163505.00;;;;4996076;28;20200;-76
2023/01/29 03:00:20;;;;;;;0.15;0.15;;;-2.00;99.90;12.80;163505.00;;;;5008017;28;20208;-76
2023/01/29 03:02:58;;;;;;;0.20;0.20;;;-1.90;99.90;12.80;163505.00;;;;5011402;28;20230;-76
2023/01/29 03:05:33;;;;;;;0.20;0.20;;;-1.90;99.90;12.80;163505.00;;;;5013524;28;20620;-76
2023/01/29 03:08:10;;;;;;;0.20;0.20;;;-1.80;99.90;12.80;163505.00;;;;4987333;28;20575;-77
2023/01/29 03:10:46;;;;;;;0.20;0.20;;;-1.80;99.90;12.80;163505.00;;;;4998044;28;20215;-76
2023/01/29 03:13:19;;;;;;;0.20;0.20;;;-1.80;99.90;12.80;163505.00;;;;5005907;28;20230;-76
2023/01/29 03:16:03;;;;;;;0.20;0.20;;;-1.90;99.90;12.80;163505.00;;;;4995588;28;20196;-74
2023/01/29 03:18:47;;;;;;;0.10;0.10;;;-1.90;99.90;12.80;163505.00;;;;4995885;28;20663;-74
2023/01/29 03:32:53;;;;;;;0.10;0.10;;;-2.00;99.90;12.80;163505.00;;;;4985021;28;20224;-73
2023/01/29 03:35:35;;;;;;;0.20;0.20;;;-2.00;99.90;12.80;163505.00;;;;4995877;28;20208;-72
2023/01/29 03:38:08;;;;;;;0.20;0.20;;;-2.00;99.90;12.80;163505.00;;;;5017152;28;20193;-74
2023/01/29 03:40:45;;;;;;;0.20;0.20;;;-2.10;99.90;12.80;163505.00;;;;5020841;28;20580;-75
2023/01/29 03:43:26;;;;;;;0.20;0.20;;;-2.10;99.90;12.80;163505.00;;;;5011801;28;20257;-77
2023/01/29 03:46:04;;;;;;;0.20;0.20;;;-2.10;99.90;12.80;163505.00;;;;4989372;28;20573;-75
2023/01/29 03:48:40;;;;;;;0.20;0.20;;;-2.10;99.90;12.80;163505.00;;;;5005162;28;20568;-75
2023/01/29 03:51:24;;;;;;;0.15;0.15;;;-2.10;99.90;12.80;163505.00;;;;5009373;28;20203;-76
2023/01/29 03:54:05;;;;;;;0.20;0.20;;;-2.10;99.90;12.80;163505.00;;;;4985115;28;20779;-75
2023/01/29 03:56:45;;;;;;;0.20;0.20;;;-2.10;99.90;12.80;163505.00;;;;4988399;28;20299;-77
2023/01/29 03:59:30;;;;;;;0.20;0.20;;;-2.00;99.90;12.80;163505.00;;;;4989543;28;20246;-75
2023/01/29 04:02:27;;;;;;;0.10;0.10;;;-2.10;99.90;12.80;163505.00;;;;4985367;28;20238;-76
2023/01/29 04:05:09;;;;;;;0.20;0.20;;;-2.10;99.90;12.80;163505.00;;;;4988336;28;20195;-76
2023/01/29 04:07:52;;;;;;;0.20;0.20;;;-2.10;99.90;12.80;163505.00;;;;4987407;28;20661;-76
2023/01/29 04:10:26;;;;;;;0.20;0.20;;;-2.20;99.90;12.80;163505.00;;;;5008116;28;20204;-78
2023/01/29 04:12:59;;;;;;;0.20;0.20;;;-2.20;99.90;12.80;163505.00;;;;5010948;28;20314;-76
2023/01/29 04:15:34;;;;;;;0.20;0.20;;;-2.20;99.90;12.80;163505.00;;;;4987395;28;20207;-77
2023/01/29 04:18:02;;;;;;;0.20;0.20;;;-2.20;99.90;12.80;163505.00;;;;4988910;28;20752;-77
2023/01/29 04:20:47;;;;;;;0.20;0.20;;;-2.30;99.90;12.80;163505.00;;;;4989002;28;20283;-77
2023/01/29 04:23:24;;;;;;;0.20;0.20;;;-2.30;99.90;12.80;163505.00;;;;4992922;28;20232;-77
2023/01/29 04:26:20;;;;;;;0.20;0.20;;;-2.30;99.90;12.80;163505.00;;;;4982088;28;20223;-78
2023/01/29 04:29:07;;;;;;;0.20;0.20;;;-2.30;99.90;12.80;163505.00;;;;4982862;28;20196;-78
2023/01/29 04:31:47;;;;;;;0.20;0.20;;;-2.30;99.90;12.80;163505.00;;;;4983943;28;20677;-78
2023/01/29 04:34:25;;;;;;;0.20;0.20;;;-2.30;99.90;12.80;163505.00;;;;4989399;28;20228;-78
2023/01/29 04:37:12;;;;;;;0.20;0.20;;;-2.30;99.90;12.80;163505.00;;;;4993237;28;20187;-77
2023/01/29 04:39:48;;;;;;;0.20;0.20;;;-2.20;99.90;12.80;163505.00;;;;5009377;28;20269;-77
2023/01/29 04:42:29;;;;;;;0.20;0.20;;;-2.30;99.90;12.80;163505.00;;;;5011581;28;20281;-77
2023/01/29 04:45:09;;;;;;;0.20;0.20;;;-2.40;99.90;12.80;163505.00;;;;5002786;28;20246;-77
2023/01/29 04:47:50;;;;;;;0.20;0.20;;;-2.40;99.90;12.80;163505.00;;;;5007301;28;20198;-77
2023/01/29 04:50:28;;;;;;;0.20;0.20;;;-2.40;99.90;12.80;163505.00;;;;5005979;28;20218;-77
2023/01/29 04:53:07;;;;;;;0.20;0.20;;;-2.40;99.90;12.80;163505.00;;;;5004329;28;20227;-78
2023/01/29 04:55:43;;;;;;;0.20;0.20;;;-2.40;99.90;12.80;163505.00;;;;5009830;28;20199;-77
2023/01/29 04:58:16;;;;;;;0.20;0.20;;;-2.40;99.90;12.80;163505.00;;;;5008690;28;20199;-77
2023/01/29 05:00:49;;;;;;;0.20;0.20;;;-2.40;99.90;12.80;163505.00;;;;5008690;28;20207;-78
2023/01/29 05:03:17;;;;;;;0.20;0.20;;;-2.50;99.90;12.80;163505.00;;;;5012772;23;20236;-77
2023/01/29 05:05:48;;;;;;;0.20;0.20;;;-2.50;99.90;12.80;163505.00;;;;4972141;28;20272;-77
2023/01/29 05:08:22;;;;;;;0.20;0.20;;;-2.50;99.90;12.80;163505.00;;;;4986009;28;20217;-75
2023/01/29 05:10:54;;;;;;;0.20;0.20;;;-2.50;99.90;12.80;163505.00;;;;4979440;28;20227;-77
2023/01/29 05:13:24;;;;;;;0.20;0.20;;;-2.50;99.90;12.80;163505.00;;;;4991424;28;20283;-77
2023/01/29 05:16:01;;;;;;;0.28;0.28;;;-2.50;99.90;12.80;163505.00;;;;4998967;28;20192;-78
2023/01/29 05:18:30;;;;;;;0.20;0.20;;;-2.50;99.90;12.80;163505.00;;;;4983984;28;20212;-78
2023/01/29 05:21:04;;;;;;;0.20;0.20;;;-2.50;99.90;12.80;163505.00;;;;5005590;28;20211;-79
2023/01/29 05:23:33;;;;;;;0.20;0.20;;;-2.50;99.90;12.80;163505.00;;;;4975082;28;20248;-77
2023/01/29 05:26:01;;;;;;;0.20;0.20;;;-2.50;99.90;12.80;163505.00;;;;4997383;28;20219;-77
2023/01/29 05:28:28;;;;;;;0.20;0.20;;;-2.50;99.90;12.80;163505.00;;;;4999539;28;20204;-77
2023/01/29 05:30:57;;;;;;;0.20;0.20;;;-2.50;99.90;12.80;163505.00;;;;5003366;28;20238;-78
2023/01/29 05:33:28;;;;;;;0.20;0.20;;;-2.50;99.90;12.80;163505.00;;;;5001702;28;20255;-76
2023/01/29 05:35:59;;;;;;;0.20;0.20;;;-2.60;99.90;12.80;163505.00;;;;4999696;28;20208;-75
2023/01/29 05:38:27;;;;;;;0.20;0.20;;;-2.50;99.90;12.80;163505.00;;;;4978840;28;20204;-75
2023/01/29 05:40:58;;;;;;;0.20;0.20;;;-2.60;99.90;12.80;163505.00;;;;5004125;28;20207;-75
2023/01/29 05:43:27;;;;;;;0.20;0.20;;;-2.60;99.90;12.80;163505.00;;;;5003338;28;20227;-75
2023/01/29 05:45:57;;;;;;;0.28;0.28;;;-2.60;99.90;12.80;163505.00;;;;5002438;28;20200;-77
2023/01/29 05:48:27;;;;;;;0.20;0.20;;;-2.60;99.90;12.80;163505.00;;;;4985927;28;20211;-78
2023/01/29 05:51:00;;;;;;;0.20;0.20;;;-2.60;99.90;12.80;163505.00;;;;5002948;28;21389;-78
2023/01/29 05:53:29;;;;;;;0.30;0.30;;;-2.60;99.90;12.80;163505.00;;;;5008623;28;20720;-77
2023/01/29 05:56:01;;;;;;;0.20;0.20;;;-2.70;99.90;12.80;163505.00;;;;5003305;28;20254;-78
2023/01/29 05:58:31;;;;;;;0.30;0.30;;;-2.70;99.90;12.80;163505.00;;;;5005697;28;20207;-77
2023/01/29 06:01:09;;;;;;;0.20;0.20;;;-2.70;99.90;12.80;163505.00;;;;5003575;28;20562;-75
2023/01/29 06:03:37;;;;;;;0.28;0.28;;;-2.70;99.90;12.80;163505.00;;;;5011479;28;20229;-76
2023/01/29 06:06:06;;;;;;;0.20;0.20;;;-2.70;99.90;12.80;163505.00;;;;4977993;28;20325;-76
2023/01/29 06:08:34;;;;;;;0.20;0.20;;;-2.80;99.90;12.80;163505.00;;;;5001314;28;20200;-77
2023/01/29 06:11:06;;;;;;;0.22;0.22;;;-2.80;99.90;12.80;163505.00;;;;5003872;28;20571;-76
2023/01/29 06:13:35;;;;;;;0.20;0.20;;;-2.80;99.90;12.80;163505.00;;;;5004536;28;20279;-76
2023/01/29 06:16:05;;;;;;;0.20;0.20;;;-2.90;99.90;12.80;163505.00;;;;5003115;28;20353;-76
2023/01/29 06:18:33;;;;;;;0.20;0.20;;;-2.90;99.90;12.80;163505.00;;;;5004315;28;20420;-75
2023/01/29 06:21:03;;;;;;;0.20;0.20;;;-2.90;99.90;12.80;163505.00;;;;5006184;28;20243;-77
2023/01/29 06:23:31;;;;;;;0.20;0.20;;;-2.90;99.90;12.80;163505.00;;;;5003041;28;20232;-76
2023/01/29 06:26:00;;;;;;;0.20;0.20;;;-2.90;99.90;12.80;163505.00;;;;4999555;28;20203;-76
2023/01/29 06:28:30;;;;;;;0.20;0.20;;;-3.00;99.90;12.80;163505.00;;;;5003003;28;20208;-75
2023/01/29 06:30:59;;;;;;;0.20;0.20;;;-3.00;99.90;12.80;163505.00;;;;5007506;28;20199;-76
2023/01/29 06:33:47;;;;;;;0.20;0.20;;;-3.00;99.90;12.80;163505.00;;;;5006011;28;20250;-77
2023/01/29 06:36:15;;;;;;;0.20;0.20;;;-3.00;99.90;12.80;163505.00;;;;4987523;28;20207;-74
2023/01/29 06:38:43;;;;;;;0.20;0.20;;;-3.10;99.90;12.80;163505.00;;;;5001189;28;20204;-78
2023/01/29 06:41:14;;;;;;;0.20;0.20;;;-3.10;99.90;12.80;163505.00;;;;5007551;28;20204;-77
2023/01/29 06:43:46;;;;;;;0.20;0.20;;;-3.10;99.90;12.80;163505.00;;;;5005954;28;20211;-76
2023/01/29 06:46:14;;;;;;;0.20;0.20;;;-3.10;99.90;12.80;163505.00;;;;5004578;28;20354;-77
2023/01/29 06:48:43;;;;;;;0.20;0.20;;;-3.00;99.90;12.80;163505.00;;;;5008070;28;20235;-77
2023/01/29 06:51:11;;;;;;;0.20;0.20;;;-3.00;99.90;12.80;163505.00;;;;5021480;28;20204;-80
2023/01/29 06:53:39;;;;;;;0.20;0.20;;;-3.00;99.90;12.80;163505.00;;;;5022156;28;20700;-78
2023/01/29 06:56:08;;;;;;;0.20;0.20;;;-3.00;99.90;12.80;163505.00;;;;4993594;28;20208;-75
2023/01/29 06:58:37;;;;;;;0.20;0.20;;;-3.00;99.90;12.80;163505.00;;;;5006214;28;20511;-76
2023/01/29 07:01:10;;;;;;;0.20;0.20;;;-3.00;99.90;12.80;163505.00;;;;4973788;28;20239;-76
2023/01/29 07:03:52;;;;;;;0.20;0.20;;;-3.10;99.90;12.80;163505.00;;;;4995512;28;20234;-76
2023/01/29 07:06:21;;;;;;;0.20;0.20;;;-3.00;99.90;12.80;163505.00;;;;4994318;28;20251;-76
2023/01/29 07:08:49;;;;;;;0.20;0.20;;;-3.10;99.90;12.80;163505.00;;;;4994881;28;20735;-79
2023/01/29 07:11:17;;;;;;;0.20;0.20;;;-3.20;99.90;12.80;163505.00;;;;4995402;28;20251;-79
2023/01/29 07:13:45;;;;;;;0.20;0.20;;;-3.30;99.90;12.80;163505.00;;;;4994269;28;20744;-79
2023/01/29 07:16:15;;;;;;;0.15;0.15;;;-3.20;99.90;12.80;163505.00;;;;4994365;28;20201;-76
2023/01/29 07:18:43;;;;;;;0.20;0.20;;;-3.30;99.90;12.80;163505.00;;;;4993231;28;20319;-76
2023/01/29 07:21:11;;;;;;;0.30;0.30;;;-3.30;99.90;12.80;163505.00;;;;4970185;28;20314;-79
2023/01/29 07:23:39;;;;;;;0.20;0.20;;;-3.30;99.90;12.80;163505.00;;;;4993950;28;20223;-77
2023/01/29 07:26:07;;;;;;;0.20;0.20;;;-3.20;99.90;12.80;163505.00;;;;4977319;28;20255;-77
2023/01/29 07:28:40;;;;;;;0.20;0.20;;;-3.20;99.90;12.80;163505.00;;;;4994499;28;20228;-77
2023/01/29 07:31:11;;;;;;;0.20;0.20;;;-3.30;99.90;12.80;163505.00;;;;4996361;28;20282;-77
2023/01/29 07:33:44;;;;;;;0.20;0.20;;;-3.30;99.90;12.80;163505.00;;;;5000922;28;20243;-76
2023/01/29 07:36:13;;;;;;;0.28;0.28;;;-3.30;99.90;12.80;163505.00;;;;4997948;28;20196;-76
2023/01/29 07:38:41;;;;;;;0.20;0.20;;;-3.30;99.90;12.80;163505.00;;;;4996428;28;20195;-76
2023/01/29 07:41:11;;;;;;;0.20;0.20;;;-3.30;99.90;12.80;163505.00;;;;4994781;28;20607;-77
2023/01/29 07:43:39;;;;;;;0.20;0.20;;;-3.30;99.90;12.80;163505.00;;;;4993319;28;20274;-75
2023/01/29 07:46:08;;;;;;;0.20;0.20;;;-3.30;99.90;12.80;163505.00;;;;4972137;28;20337;-77
2023/01/29 07:48:36;;;;;;;0.20;0.20;;;-3.30;99.90;12.80;163505.00;;;;4999577;28;20255;-78
2023/01/29 07:51:06;;;;;;;0.20;0.20;;;-3.20;99.90;12.80;163505.00;;;;5006319;28;20203;-77
2023/01/29 07:53:34;;;;;;;0.22;0.22;;;-3.20;99.90;12.80;163505.00;;;;4991543;28;20224;-77
2023/01/29 07:56:03;;;;;;;0.20;0.20;;;-3.10;99.90;12.80;163505.00;;;;5000223;28;20205;-79
2023/01/29 07:58:32;;;;;;;0.30;0.30;;;-3.10;99.90;12.80;163505.00;;;;4985038;28;20228;-79
2023/01/29 08:01:07;;;;;;;0.20;0.20;;;-3.10;99.90;12.80;163505.00;;;;4986475;28;20231;-78
2023/01/29 08:03:35;;;;;;;0.20;0.20;;;-3.00;99.90;12.80;163505.00;;;;4980902;28;20290;-78
2023/01/29 08:06:05;;;;;;;0.20;0.20;;;-2.90;99.90;12.80;163505.00;;;;4999047;28;20216;-78
2023/01/29 08:08:33;;;;;;;0.20;0.20;;;-2.80;99.90;12.80;163505.00;;;;4996636;28;20200;-78
2023/01/29 08:11:03;;;;;;;0.20;0.20;;;-2.90;99.90;12.80;163505.00;;;;4994190;28;21761;-77
2023/01/29 08:13:31;;;;;;;0.20;0.20;;;-3.00;99.90;12.80;163505.00;;;;5006056;28;20242;-78
2023/01/29 08:16:01;;;;;;;0.20;0.20;;;-2.90;99.90;12.80;163505.00;;;;5006525;28;20210;-78
2023/01/29 08:18:30;;;;;;;0.20;0.20;;;-2.90;99.90;12.80;163505.00;;;;4990449;28;20204;-78
2023/01/29 08:21:02;;;;;;;0.20;0.20;;;-2.90;99.90;12.80;163505.00;;;;5004557;28;20278;-78
2023/01/29 08:23:31;;;;;;;0.20;0.20;;;-2.90;99.90;12.80;163505.00;;;;4998617;28;20217;-78
2023/01/29 08:25:59;;;;;;;0.25;0.25;;;-2.80;99.90;12.80;163505.00;;;;5008003;28;20297;-78
2023/01/29 08:28:27;;;;;;;0.20;0.20;;;-2.80;99.90;12.80;163505.00;;;;5002617;28;20571;-78
2023/01/29 08:30:55;;;;;;;0.20;0.20;;;-2.80;99.90;12.80;163505.00;;;;5009373;28;20200;-78
2023/01/29 08:33:24;;;;;;;0.15;0.15;;;-2.80;99.90;12.80;163505.00;;;;5004273;28;20215;-78
2023/01/29 08:36:07;;;;;;;0.20;0.20;;;-2.80;99.90;12.80;163505.00;;;;5001480;28;20764;-78
2023/01/29 08:38:36;;;;;;;0.20;0.20;;;-2.80;99.90;12.80;163505.00;;;;4996408;28;20196;-78
2023/01/29 08:41:06;;;;;;;0.20;0.20;;;-2.90;99.90;12.80;163505.00;;;;4994592;28;20208;-77
2023/01/29 08:43:35;;;;;;;0.20;0.20;;;-2.90;99.90;12.80;163505.00;;;;4996011;28;20220;-77
2023/01/29 08:46:04;;;;;;;0.20;0.20;;;-2.90;99.90;12.80;163505.00;;;;4994930;28;20607;-77
2023/01/29 08:48:32;;;;;;;0.20;0.20;;;-2.80;99.90;12.80;163505.00;;;;4983753;28;20687;-78
2023/01/29 08:51:03;;;;;;;0.20;0.20;;;-2.90;99.90;12.80;163505.00;;;;5009163;28;20198;-77
2023/01/29 08:53:32;;;;;;;0.20;0.20;;;-2.90;99.90;12.80;163505.00;;;;5001220;28;20223;-78
2023/01/29 08:56:01;;;;;;;0.20;0.20;;;-2.80;99.90;12.80;163505.00;;;;5012336;28;20197;-77
2023/01/29 08:58:29;;;;;;;0.20;0.20;;;-2.80;99.90;12.80;163505.00;;;;5012013;28;20259;-77
2023/01/29 09:01:04;;;;;;;0.10;0.10;;;-2.80;99.90;12.80;163505.00;;;;5003748;28;20227;-78
2023/01/29 09:03:32;;;;;;;0.20;0.20;;;-2.80;99.90;12.80;163505.00;;;;5000863;28;20258;-78
2023/01/29 09:06:00;;;;;;;0.20;0.20;;;-2.80;99.90;12.80;163505.00;;;;5002090;28;20588;-78
2023/01/29 09:08:28;;;;;;;0.30;0.30;;;-2.80;99.90;12.80;163505.00;;;;4994926;28;20215;-78
2023/01/29 09:10:58;;;;;;;0.20;0.20;;;-2.80;99.90;12.80;163505.00;;;;4992044;28;20196;-77
2023/01/29 09:13:28;;;;;;;0.20;0.20;;;-2.70;99.90;12.80;163505.00;;;;4998720;28;20793;-78
2023/01/29 09:16:00;;;;;;;0.20;0.20;;;-2.70;99.90;12.80;163505.00;;;;4987194;28;20227;-78
2023/01/29 09:18:28;;;;;;;0.20;0.20;;;-2.70;99.90;12.80;163505.00;;;;4970859;28;20205;-77
2023/01/29 09:20:57;;;;;;;0.30;0.30;;;-2.60;99.90;12.80;163505.00;;;;4998573;28;20210;-78
2023/01/29 09:23:25;;;;;;;0.10;0.10;;;-2.50;99.90;12.80;163505.00;;;;4996913;28;21705;-77
2023/01/29 09:25:53;;;;;;;0.20;0.20;;;-2.50;99.90;12.80;163505.00;;;;4978997;28;20270;-78
2023/01/29 09:28:21;;;;;;;0.20;0.20;;;-2.50;99.90;12.80;163505.00;;;;4985061;28;20781;-78
2023/01/29 09:30:51;;;;;;;0.20;0.20;;;-2.50;99.90;12.80;163505.00;;;;4989715;28;20196;-77
2023/01/29 09:33:25;;;;;;;0.20;0.20;;;-2.40;99.90;12.80;163505.00;;;;4993872;28;20711;-77
2023/01/29 09:35:53;;;;;;;0.10;0.10;;;-2.40;99.90;12.80;163505.00;;;;4975956;28;20259;-78
2023/01/29 09:38:21;;;;;;;0.20;0.20;;;-2.30;99.90;12.80;163505.00;;;;4990486;28;20208;-77
2023/01/29 09:41:00;;;;;;;0.20;0.20;;;-2.40;99.90;12.80;163505.00;;;;4988682;28;20630;-77
2023/01/29 09:43:41;;;;;;;0.20;0.20;;;-2.40;99.90;12.80;163505.00;;;;4987728;28;20667;-78
2023/01/29 09:46:21;;;;;;;0.20;0.20;;;-2.40;99.90;12.80;163505.00;;;;4989265;28;20232;-78
2023/01/29 09:48:57;;;;;;;0.20;0.20;;;-2.40;99.90;12.80;163505.00;;;;4978157;28;20704;-78
2023/01/29 09:51:33;;;;;;;0.20;0.20;;;-2.30;99.90;12.80;163505.00;;;;4994056;28;20264;-79
2023/01/29 09:54:16;;;;;;;0.20;0.20;;;-2.20;99.90;12.80;163505.00;;;;4990607;28;20267;-78
2023/01/29 09:56:46;;;;;;;0.20;0.20;;;-2.20;99.90;12.80;163505.00;;;;5002803;28;20207;-78
2023/01/29 09:59:18;;;;;;;0.17;0.17;;;-2.10;99.90;12.80;163505.00;;;;4998843;28;20669;-78
2023/01/29 10:02:02;;;;;;;0.20;0.20;;;-2.10;99.90;12.80;163505.00;;;;4984528;28;20611;-78
2023/01/29 10:05:22;;;;;;;0.20;0.20;;;-2.10;99.90;12.80;163505.00;;;;4981774;28;20282;-80
2023/01/29 10:08:52;;;;;;;0.20;0.20;;;-2.10;99.90;12.80;163505.00;;;;4990940;28;20227;-78
2023/01/29 10:11:39;;;;;;;0.20;0.20;;;-2.20;99.90;12.80;163505.00;;;;4952150;28;20217;-76
2023/01/29 10:14:20;;;;;;;0.20;0.20;;;-2.10;99.90;12.80;163505.00;;;;4954373;28;20236;-78
2023/01/29 10:17:11;;;;;;;0.20;0.20;;;-2.10;99.90;12.80;163505.00;;;;4984102;28;20204;-78
2023/01/29 10:19:56;;;;;;;0.20;0.20;;;-2.10;99.90;12.80;163505.00;;;;5002515;28;20254;-78
2023/01/29 10:22:56;;;;;;;0.20;0.20;;;-2.10;99.90;12.80;163505.00;;;;5003523;28;20203;-77
2023/01/29 10:25:24;;;;;;;0.20;0.20;;;-2.10;99.90;12.80;163505.00;;;;4996132;28;20200;-77
2023/01/29 10:27:57;;;;;;;0.20;0.20;;;-2.10;99.90;12.80;163505.00;;;;4999993;28;20204;-77
2023/01/29 10:30:33;;;;;;;0.20;0.20;;;-2.20;99.90;12.80;163505.00;;;;4997936;28;20188;-76
2023/01/29 10:33:06;;;;;;;0.20;0.20;;;-2.20;99.90;12.80;163505.00;;;;5005152;28;20222;-77
2023/01/29 10:35:40;;;;;;;0.20;0.20;;;-2.20;99.90;12.80;163505.00;;;;5004680;28;20689;-77
2023/01/29 10:38:28;;;;;;;0.20;0.20;;;-2.10;99.90;12.80;163505.00;;;;5001362;28;20245;-77
2023/01/29 10:41:08;;;;;;;0.20;0.20;;;-2.00;99.90;12.80;163505.00;;;;4992437;28;20204;-77
2023/01/29 10:43:50;;;;;;;0.20;0.20;;;-2.00;99.90;12.80;163505.00;;;;4997521;28;20787;-77
2023/01/29 10:46:34;;;;;;;0.20;0.20;;;-1.90;99.90;12.80;163505.00;;;;4995414;28;20212;-77
2023/01/29 10:49:18;;;;;;;0.20;0.20;;;-1.90;99.90;12.80;163505.00;;;;4975243;28;20201;-78
2023/01/29 10:52:10;;;;;;;0.20;0.20;;;-1.80;99.90;12.80;163505.00;;;;5001500;28;20269;-77
2023/01/29 10:55:01;;;;;;;0.20;0.20;;;-1.90;99.90;12.80;163505.00;;;;5001693;28;20209;-77
2023/01/29 10:57:49;;;;;;;0.20;0.20;;;-1.90;99.90;12.80;163505.00;;;;5002059;28;20204;-77
2023/01/29 11:00:23;;;;;;;0.10;0.10;;;-1.90;99.90;12.80;163505.00;;;;4994143;28;20214;-77
2023/01/29 11:02:52;;;;;;;0.20;0.20;;;-1.80;99.90;12.80;163505.00;;;;5022332;23;20262;-79
2023/01/29 11:05:33;;;;;;;0.20;0.20;;;-1.80;99.90;12.80;163505.00;;;;4994052;28;20211;-78
2023/01/29 11:08:08;;;;;;;0.20;0.20;;;-1.80;99.90;12.80;163505.00;;;;4993977;28;20200;-79
2023/01/29 11:10:44;;;;;;;0.20;0.20;;;-1.70;99.90;12.80;163505.00;;;;4994585;28;20208;-79
2023/01/29 11:13:16;;;;;;;0.20;0.20;;;-1.60;99.90;12.80;163505.00;;;;4988007;28;20215;-79
2023/01/29 11:15:44;;;;;;;0.20;0.20;;;-1.60;99.90;12.80;163505.00;;;;5003963;28;20666;-79
2023/01/29 11:18:14;;;;;;;0.20;0.20;;;-1.70;99.90;12.80;163505.00;;;;5011512;28;20261;-79
2023/01/29 11:20:46;;;;;;;0.20;0.20;;;-1.70;99.90;12.80;163505.00;;;;5004101;28;20188;-79
2023/01/29 11:23:27;;;;;;;0.20;0.20;;;-1.60;99.90;12.80;163505.00;;;;5014627;28;20219;-82
2023/01/29 11:25:57;;;;;;;0.20;0.20;;;-1.60;99.90;12.80;163505.00;;;;5006463;28;20227;-79
2023/01/29 11:28:40;;;;;;;0.20;0.20;;;-1.60;99.90;12.80;163505.00;;;;5012061;28;20207;-78
2023/01/29 11:31:23;;;;;;;0.20;0.20;;;-1.60;99.90;12.80;163505.00;;;;5000884;28;20734;-79
2023/01/29 11:34:00;;;;;;;0.20;0.20;;;-1.50;99.90;12.80;163505.00;;;;5013220;28;20220;-79
2023/01/29 11:36:37;;;;;;;0.20;0.20;;;-1.50;99.90;12.80;163505.00;;;;5009559;28;20204;-79
2023/01/29 11:39:18;;;;;;;0.20;0.20;;;-1.30;99.90;12.80;163505.00;;;;5013079;28;20223;-79
2023/01/29 11:41:55;;;;;;;0.15;0.15;;;-1.30;99.90;12.80;163505.00;;;;5013478;28;20223;-79